sensor_id;sensor_type;location;lat;lon;timestamp;P1;durP1;ratioP1;P2;durP2;ratioP2
7074;SDS011;3578;51.568;6.932;2023-05-10T00:01:36;20.73;;;13.23;;
7074;SDS011;3578;51.568;6.932;2023-05-10T00:04:03;24.70;;;13.90;;
7074;SDS011;3578;51.568;6.932;2023-05-10T00:06:31;22.37;;;15.67;;
7074;SDS011;3578;51.568;6.932;2023-05-10T00:08:58;26.13;;;15.73;;
7074;SDS011;3578;51.568;6.932;2023-05-10T00:11:25;27.73;;;15.80;;
7074;SDS011;3578;51.568;6.932;2023-05-10T00:13:52;27.00;;;15.43;;
7074;SDS011;3578;51.568;6.932;2023-05-10T00:16:20;25.83;;;16.13;;
7074;SDS011;3578;51.568;6.932;2023-05-10T00:18:47;23.00;;;15.70;;
7074;SDS011;3578;51.568;6.932;2023-05-10T00:21:13;26.13;;;16.53;;
7074;SDS011;3578;51.568;6.932;2023-05-10T00:23:42;28.57;;;16.30;;
7074;SDS011;3578;51.568;6.932;2023-05-10T00:26:09;25.27;;;17.30;;
7074;SDS011;3578;51.568;6.932;2023-05-10T00:28:36;27.50;;;17.87;;
7074;SDS011;3578;51.568;6.932;2023-05-10T00:31:03;26.07;;;16.60;;
7074;SDS011;3578;51.568;6.932;2023-05-10T00:33:30;26.30;;;15.83;;
7074;SDS011;3578;51.568;6.932;2023-05-10T00:35:57;22.57;;;15.00;;
7074;SDS011;3578;51.568;6.932;2023-05-10T00:38:24;24.70;;;16.40;;
7074;SDS011;3578;51.568;6.932;2023-05-10T00:40:52;26.13;;;16.10;;
7074;SDS011;3578;51.568;6.932;2023-05-10T00:43:19;20.93;;;15.40;;
7074;SDS011;3578;51.568;6.932;2023-05-10T00:45:46;24.17;;;15.80;;
7074;SDS011;3578;51.568;6.932;2023-05-10T00:48:14;23.50;;;16.60;;
7074;SDS011;3578;51.568;6.932;2023-05-10T00:50:41;23.10;;;16.03;;
7074;SDS011;3578;51.568;6.932;2023-05-10T00:53:08;19.77;;;14.87;;
7074;SDS011;3578;51.568;6.932;2023-05-10T00:55:36;23.80;;;15.90;;
7074;SDS011;3578;51.568;6.932;2023-05-10T00:58:05;21.20;;;15.87;;
7074;SDS011;3578;51.568;6.932;2023-05-10T01:00:32;28.90;;;16.90;;
7074;SDS011;3578;51.568;6.932;2023-05-10T01:03:00;22.50;;;14.90;;
7074;SDS011;3578;51.568;6.932;2023-05-10T01:05:27;21.20;;;15.73;;
7074;SDS011;3578;51.568;6.932;2023-05-10T01:07:54;21.77;;;15.60;;
7074;SDS011;3578;51.568;6.932;2023-05-10T01:10:22;23.70;;;16.87;;
7074;SDS011;3578;51.568;6.932;2023-05-10T01:12:49;23.77;;;15.90;;
7074;SDS011;3578;51.568;6.932;2023-05-10T01:15:17;21.60;;;16.37;;
7074;SDS011;3578;51.568;6.932;2023-05-10T01:17:46;25.70;;;15.90;;
7074;SDS011;3578;51.568;6.932;2023-05-10T01:20:14;21.07;;;15.47;;
7074;SDS011;3578;51.568;6.932;2023-05-10T01:22:50;22.90;;;14.63;;
7074;SDS011;3578;51.568;6.932;2023-05-10T01:25:48;19.70;;;14.33;;
7074;SDS011;3578;51.568;6.932;2023-05-10T01:29:02;19.70;;;14.70;;
7074;SDS011;3578;51.568;6.932;2023-05-10T01:34:59;29.10;;;16.90;;
7074;SDS011;3578;51.568;6.932;2023-05-10T01:37:31;28.83;;;16.80;;
7074;SDS011;3578;51.568;6.932;2023-05-10T01:40:08;26.90;;;16.50;;
7074;SDS011;3578;51.568;6.932;2023-05-10T01:42:46;26.57;;;17.23;;
7074;SDS011;3578;51.568;6.932;2023-05-10T01:45:19;27.53;;;17.00;;
7074;SDS011;3578;51.568;6.932;2023-05-10T01:48:01;30.40;;;18.20;;
7074;SDS011;3578;51.568;6.932;2023-05-10T01:50:32;35.27;;;19.07;;
7074;SDS011;3578;51.568;6.932;2023-05-10T01:53:03;29.97;;;18.00;;
7074;SDS011;3578;51.568;6.932;2023-05-10T01:55:35;28.77;;;18.30;;
7074;SDS011;3578;51.568;6.932;2023-05-10T01:58:09;34.27;;;21.23;;
7074;SDS011;3578;51.568;6.932;2023-05-10T02:00:43;29.90;;;18.83;;
7074;SDS011;3578;51.568;6.932;2023-05-10T02:03:13;34.30;;;20.50;;
7074;SDS011;3578;51.568;6.932;2023-05-10T02:05:42;32.63;;;20.37;;
7074;SDS011;3578;51.568;6.932;2023-05-10T02:08:11;33.57;;;20.07;;
7074;SDS011;3578;51.568;6.932;2023-05-10T02:10:39;29.73;;;18.83;;
7074;SDS011;3578;51.568;6.932;2023-05-10T02:13:08;32.77;;;20.97;;
7074;SDS011;3578;51.568;6.932;2023-05-10T02:15:37;32.53;;;19.60;;
7074;SDS011;3578;51.568;6.932;2023-05-10T02:18:06;40.47;;;22.17;;
7074;SDS011;3578;51.568;6.932;2023-05-10T02:20:36;37.67;;;21.67;;
7074;SDS011;3578;51.568;6.932;2023-05-10T02:23:04;45.07;;;22.37;;
7074;SDS011;3578;51.568;6.932;2023-05-10T02:25:33;36.87;;;22.27;;
7074;SDS011;3578;51.568;6.932;2023-05-10T02:28:02;39.20;;;22.37;;
7074;SDS011;3578;51.568;6.932;2023-05-10T02:30:31;40.50;;;22.40;;
7074;SDS011;3578;51.568;6.932;2023-05-10T02:33:00;43.43;;;24.60;;
7074;SDS011;3578;51.568;6.932;2023-05-10T02:35:30;45.37;;;25.30;;
7074;SDS011;3578;51.568;6.932;2023-05-10T02:38:00;38.70;;;23.07;;
7074;SDS011;3578;51.568;6.932;2023-05-10T02:40:27;40.73;;;22.20;;
7074;SDS011;3578;51.568;6.932;2023-05-10T02:42:56;47.33;;;23.77;;
7074;SDS011;3578;51.568;6.932;2023-05-10T02:45:26;40.73;;;22.70;;
7074;SDS011;3578;51.568;6.932;2023-05-10T02:47:58;47.93;;;22.80;;
7074;SDS011;3578;51.568;6.932;2023-05-10T02:50:25;46.37;;;24.30;;
7074;SDS011;3578;51.568;6.932;2023-05-10T02:53:00;42.40;;;23.70;;
7074;SDS011;3578;51.568;6.932;2023-05-10T02:55:36;47.10;;;23.90;;
7074;SDS011;3578;51.568;6.932;2023-05-10T02:58:07;48.83;;;24.37;;
7074;SDS011;3578;51.568;6.932;2023-05-10T03:00:34;46.53;;;22.20;;
7074;SDS011;3578;51.568;6.932;2023-05-10T03:03:01;41.87;;;24.03;;
7074;SDS011;3578;51.568;6.932;2023-05-10T03:05:28;44.93;;;23.10;;
7074;SDS011;3578;51.568;6.932;2023-05-10T03:07:55;40.93;;;21.63;;
7074;SDS011;3578;51.568;6.932;2023-05-10T03:10:26;42.60;;;22.83;;
7074;SDS011;3578;51.568;6.932;2023-05-10T03:12:57;60.27;;;24.80;;
7074;SDS011;3578;51.568;6.932;2023-05-10T03:15:41;48.87;;;27.00;;
7074;SDS011;3578;51.568;6.932;2023-05-10T03:18:21;50.80;;;25.20;;
7074;SDS011;3578;51.568;6.932;2023-05-10T03:20:50;54.67;;;26.67;;
7074;SDS011;3578;51.568;6.932;2023-05-10T03:23:25;53.07;;;27.00;;
7074;SDS011;3578;51.568;6.932;2023-05-10T03:26:02;45.30;;;24.53;;
7074;SDS011;3578;51.568;6.932;2023-05-10T03:28:30;51.00;;;27.23;;
7074;SDS011;3578;51.568;6.932;2023-05-10T03:30:59;53.37;;;26.97;;
7074;SDS011;3578;51.568;6.932;2023-05-10T03:33:28;53.43;;;26.13;;
7074;SDS011;3578;51.568;6.932;2023-05-10T03:35:55;54.20;;;27.77;;
7074;SDS011;3578;51.568;6.932;2023-05-10T03:38:23;60.30;;;26.90;;
7074;SDS011;3578;51.568;6.932;2023-05-10T03:40:50;60.97;;;27.50;;
7074;SDS011;3578;51.568;6.932;2023-05-10T03:43:18;56.93;;;27.83;;
7074;SDS011;3578;51.568;6.932;2023-05-10T03:45:45;52.80;;;29.60;;
7074;SDS011;3578;51.568;6.932;2023-05-10T03:48:12;60.83;;;29.23;;
7074;SDS011;3578;51.568;6.932;2023-05-10T03:50:39;68.70;;;31.70;;
7074;SDS011;3578;51.568;6.932;2023-05-10T03:53:06;64.33;;;33.10;;
7074;SDS011;3578;51.568;6.932;2023-05-10T03:55:33;63.20;;;32.17;;
7074;SDS011;3578;51.568;6.932;2023-05-10T03:58:01;60.10;;;32.47;;
7074;SDS011;3578;51.568;6.932;2023-05-10T04:00:29;70.43;;;34.70;;
7074;SDS011;3578;51.568;6.932;2023-05-10T04:02:57;65.27;;;34.07;;
7074;SDS011;3578;51.568;6.932;2023-05-10T04:05:24;74.97;;;37.57;;
7074;SDS011;3578;51.568;6.932;2023-05-10T04:07:51;84.50;;;37.63;;
7074;SDS011;3578;51.568;6.932;2023-05-10T04:10:18;75.07;;;38.10;;
7074;SDS011;3578;51.568;6.932;2023-05-10T04:12:46;94.97;;;39.23;;
7074;SDS011;3578;51.568;6.932;2023-05-10T04:15:13;85.60;;;40.53;;
7074;SDS011;3578;51.568;6.932;2023-05-10T04:17:41;81.07;;;39.20;;
7074;SDS011;3578;51.568;6.932;2023-05-10T04:20:08;94.00;;;41.07;;
7074;SDS011;3578;51.568;6.932;2023-05-10T04:22:37;93.03;;;42.20;;
7074;SDS011;3578;51.568;6.932;2023-05-10T04:25:04;98.67;;;42.00;;
7074;SDS011;3578;51.568;6.932;2023-05-10T04:27:33;99.97;;;41.67;;
7074;SDS011;3578;51.568;6.932;2023-05-10T04:30:00;91.03;;;41.37;;
7074;SDS011;3578;51.568;6.932;2023-05-10T04:32:27;85.83;;;38.20;;
7074;SDS011;3578;51.568;6.932;2023-05-10T04:34:55;87.67;;;39.20;;
7074;SDS011;3578;51.568;6.932;2023-05-10T04:37:22;79.47;;;40.70;;
7074;SDS011;3578;51.568;6.932;2023-05-10T04:39:49;85.93;;;39.40;;
7074;SDS011;3578;51.568;6.932;2023-05-10T04:42:16;83.90;;;38.07;;
7074;SDS011;3578;51.568;6.932;2023-05-10T04:44:43;86.47;;;39.60;;
7074;SDS011;3578;51.568;6.932;2023-05-10T04:47:10;84.90;;;39.20;;
7074;SDS011;3578;51.568;6.932;2023-05-10T04:49:38;90.53;;;42.43;;
7074;SDS011;3578;51.568;6.932;2023-05-10T04:52:06;83.60;;;39.73;;
7074;SDS011;3578;51.568;6.932;2023-05-10T04:54:33;110.17;;;42.47;;
7074;SDS011;3578;51.568;6.932;2023-05-10T04:57:00;88.60;;;38.53;;
7074;SDS011;3578;51.568;6.932;2023-05-10T04:59:27;88.70;;;42.80;;
7074;SDS011;3578;51.568;6.932;2023-05-10T05:01:54;95.47;;;42.43;;
7074;SDS011;3578;51.568;6.932;2023-05-10T05:04:21;90.57;;;43.63;;
7074;SDS011;3578;51.568;6.932;2023-05-10T05:06:49;96.80;;;43.97;;
7074;SDS011;3578;51.568;6.932;2023-05-10T05:09:17;94.47;;;44.00;;
7074;SDS011;3578;51.568;6.932;2023-05-10T05:11:44;92.30;;;43.47;;
7074;SDS011;3578;51.568;6.932;2023-05-10T05:14:11;99.40;;;44.10;;
7074;SDS011;3578;51.568;6.932;2023-05-10T05:16:38;87.00;;;43.40;;
7074;SDS011;3578;51.568;6.932;2023-05-10T05:19:05;101.33;;;44.80;;
7074;SDS011;3578;51.568;6.932;2023-05-10T05:21:32;92.60;;;42.03;;
7074;SDS011;3578;51.568;6.932;2023-05-10T05:23:59;88.70;;;42.70;;
7074;SDS011;3578;51.568;6.932;2023-05-10T05:26:27;93.30;;;43.87;;
7074;SDS011;3578;51.568;6.932;2023-05-10T05:28:54;95.43;;;44.17;;
7074;SDS011;3578;51.568;6.932;2023-05-10T05:31:21;91.67;;;44.10;;
7074;SDS011;3578;51.568;6.932;2023-05-10T05:33:48;96.43;;;44.47;;
7074;SDS011;3578;51.568;6.932;2023-05-10T05:36:15;100.53;;;47.40;;
7074;SDS011;3578;51.568;6.932;2023-05-10T05:38:41;93.60;;;44.77;;
7074;SDS011;3578;51.568;6.932;2023-05-10T05:41:09;94.73;;;48.30;;
7074;SDS011;3578;51.568;6.932;2023-05-10T05:43:37;82.57;;;42.10;;
7074;SDS011;3578;51.568;6.932;2023-05-10T05:46:04;97.50;;;44.07;;
7074;SDS011;3578;51.568;6.932;2023-05-10T05:48:31;101.60;;;44.53;;
7074;SDS011;3578;51.568;6.932;2023-05-10T05:50:58;90.33;;;43.37;;
7074;SDS011;3578;51.568;6.932;2023-05-10T05:53:25;80.77;;;43.03;;
7074;SDS011;3578;51.568;6.932;2023-05-10T05:55:52;87.67;;;44.20;;
7074;SDS011;3578;51.568;6.932;2023-05-10T05:58:20;86.80;;;45.10;;
7074;SDS011;3578;51.568;6.932;2023-05-10T06:00:48;73.90;;;43.30;;
7074;SDS011;3578;51.568;6.932;2023-05-10T06:03:16;83.67;;;43.77;;
7074;SDS011;3578;51.568;6.932;2023-05-10T06:05:43;86.03;;;43.90;;
7074;SDS011;3578;51.568;6.932;2023-05-10T06:08:10;74.27;;;42.53;;
7074;SDS011;3578;51.568;6.932;2023-05-10T06:10:37;83.87;;;40.10;;
7074;SDS011;3578;51.568;6.932;2023-05-10T06:13:04;75.17;;;43.20;;
7074;SDS011;3578;51.568;6.932;2023-05-10T06:15:31;86.80;;;44.70;;
7074;SDS011;3578;51.568;6.932;2023-05-10T06:18:00;79.60;;;42.13;;
7074;SDS011;3578;51.568;6.932;2023-05-10T06:20:27;79.87;;;43.47;;
7074;SDS011;3578;51.568;6.932;2023-05-10T06:22:53;81.37;;;43.83;;
7074;SDS011;3578;51.568;6.932;2023-05-10T06:25:20;73.33;;;41.27;;
7074;SDS011;3578;51.568;6.932;2023-05-10T06:27:48;71.03;;;41.20;;
7074;SDS011;3578;51.568;6.932;2023-05-10T06:30:15;73.73;;;40.77;;
7074;SDS011;3578;51.568;6.932;2023-05-10T06:32:42;66.43;;;40.37;;
7074;SDS011;3578;51.568;6.932;2023-05-10T06:35:11;71.13;;;41.10;;
7074;SDS011;3578;51.568;6.932;2023-05-10T06:37:38;70.60;;;39.73;;
7074;SDS011;3578;51.568;6.932;2023-05-10T06:40:06;70.27;;;41.00;;
7074;SDS011;3578;51.568;6.932;2023-05-10T06:42:34;63.70;;;39.23;;
7074;SDS011;3578;51.568;6.932;2023-05-10T06:45:01;62.83;;;37.83;;
7074;SDS011;3578;51.568;6.932;2023-05-10T06:47:28;69.63;;;40.10;;
7074;SDS011;3578;51.568;6.932;2023-05-10T06:49:55;65.83;;;40.40;;
7074;SDS011;3578;51.568;6.932;2023-05-10T06:52:23;80.57;;;40.20;;
7074;SDS011;3578;51.568;6.932;2023-05-10T06:54:50;65.60;;;39.80;;
7074;SDS011;3578;51.568;6.932;2023-05-10T06:57:17;71.23;;;42.10;;
7074;SDS011;3578;51.568;6.932;2023-05-10T06:59:44;70.93;;;40.63;;
7074;SDS011;3578;51.568;6.932;2023-05-10T07:02:11;71.43;;;40.70;;
7074;SDS011;3578;51.568;6.932;2023-05-10T07:04:39;70.97;;;41.07;;
7074;SDS011;3578;51.568;6.932;2023-05-10T07:07:06;69.23;;;37.87;;
7074;SDS011;3578;51.568;6.932;2023-05-10T07:09:35;67.77;;;40.87;;
7074;SDS011;3578;51.568;6.932;2023-05-10T07:12:02;70.70;;;40.60;;
7074;SDS011;3578;51.568;6.932;2023-05-10T07:14:30;69.30;;;41.07;;
7074;SDS011;3578;51.568;6.932;2023-05-10T07:16:57;75.93;;;40.90;;
7074;SDS011;3578;51.568;6.932;2023-05-10T07:19:24;70.93;;;40.90;;
7074;SDS011;3578;51.568;6.932;2023-05-10T07:21:51;67.27;;;40.77;;
7074;SDS011;3578;51.568;6.932;2023-05-10T07:24:18;62.97;;;38.07;;
7074;SDS011;3578;51.568;6.932;2023-05-10T07:26:46;65.83;;;39.93;;
7074;SDS011;3578;51.568;6.932;2023-05-10T07:29:13;73.57;;;39.87;;
7074;SDS011;3578;51.568;6.932;2023-05-10T07:31:40;65.73;;;39.20;;
7074;SDS011;3578;51.568;6.932;2023-05-10T07:34:07;57.20;;;36.00;;
7074;SDS011;3578;51.568;6.932;2023-05-10T07:36:35;58.83;;;37.10;;
7074;SDS011;3578;51.568;6.932;2023-05-10T07:39:02;55.10;;;38.10;;
7074;SDS011;3578;51.568;6.932;2023-05-10T07:41:29;55.03;;;35.90;;
7074;SDS011;3578;51.568;6.932;2023-05-10T07:43:57;51.50;;;33.33;;
7074;SDS011;3578;51.568;6.932;2023-05-10T07:46:24;54.13;;;34.27;;
7074;SDS011;3578;51.568;6.932;2023-05-10T07:48:51;47.07;;;32.00;;
7074;SDS011;3578;51.568;6.932;2023-05-10T07:51:18;54.37;;;33.90;;
7074;SDS011;3578;51.568;6.932;2023-05-10T07:53:46;49.93;;;33.77;;
7074;SDS011;3578;51.568;6.932;2023-05-10T07:56:22;53.77;;;35.83;;
7074;SDS011;3578;51.568;6.932;2023-05-10T07:58:52;54.33;;;35.23;;
7074;SDS011;3578;51.568;6.932;2023-05-10T08:01:21;60.80;;;37.30;;
7074;SDS011;3578;51.568;6.932;2023-05-10T08:03:49;65.43;;;39.50;;
7074;SDS011;3578;51.568;6.932;2023-05-10T08:06:18;63.47;;;38.53;;
7074;SDS011;3578;51.568;6.932;2023-05-10T08:08:46;62.10;;;37.50;;
7074;SDS011;3578;51.568;6.932;2023-05-10T08:11:15;59.83;;;36.73;;
7074;SDS011;3578;51.568;6.932;2023-05-10T08:13:42;60.63;;;35.30;;
7074;SDS011;3578;51.568;6.932;2023-05-10T08:16:09;54.73;;;32.47;;
7074;SDS011;3578;51.568;6.932;2023-05-10T08:18:38;48.60;;;30.23;;
7074;SDS011;3578;51.568;6.932;2023-05-10T08:21:06;42.43;;;26.83;;
7074;SDS011;3578;51.568;6.932;2023-05-10T08:23:34;40.00;;;26.70;;
7074;SDS011;3578;51.568;6.932;2023-05-10T08:26:01;40.67;;;27.07;;
7074;SDS011;3578;51.568;6.932;2023-05-10T08:28:27;39.70;;;25.57;;
7074;SDS011;3578;51.568;6.932;2023-05-10T08:30:55;40.73;;;26.13;;
7074;SDS011;3578;51.568;6.932;2023-05-10T08:33:22;34.73;;;24.67;;
7074;SDS011;3578;51.568;6.932;2023-05-10T08:35:50;40.20;;;24.90;;
7074;SDS011;3578;51.568;6.932;2023-05-10T08:38:17;39.33;;;25.60;;
7074;SDS011;3578;51.568;6.932;2023-05-10T08:40:44;32.07;;;23.60;;
7074;SDS011;3578;51.568;6.932;2023-05-10T08:43:14;37.00;;;23.27;;
7074;SDS011;3578;51.568;6.932;2023-05-10T08:45:41;36.60;;;23.70;;
7074;SDS011;3578;51.568;6.932;2023-05-10T08:48:10;34.03;;;22.90;;
7074;SDS011;3578;51.568;6.932;2023-05-10T08:50:38;37.63;;;24.53;;
7074;SDS011;3578;51.568;6.932;2023-05-10T08:53:10;38.07;;;25.37;;
7074;SDS011;3578;51.568;6.932;2023-05-10T08:55:39;38.10;;;25.33;;
7074;SDS011;3578;51.568;6.932;2023-05-10T08:58:08;40.93;;;25.73;;
7074;SDS011;3578;51.568;6.932;2023-05-10T09:00:35;43.90;;;28.50;;
7074;SDS011;3578;51.568;6.932;2023-05-10T09:03:03;39.07;;;28.47;;
7074;SDS011;3578;51.568;6.932;2023-05-10T09:05:32;39.47;;;28.13;;
7074;SDS011;3578;51.568;6.932;2023-05-10T09:07:59;41.03;;;29.70;;
7074;SDS011;3578;51.568;6.932;2023-05-10T09:10:27;41.30;;;29.20;;
7074;SDS011;3578;51.568;6.932;2023-05-10T09:12:56;45.13;;;29.73;;
7074;SDS011;3578;51.568;6.932;2023-05-10T09:15:24;43.67;;;29.80;;
7074;SDS011;3578;51.568;6.932;2023-05-10T09:17:51;43.23;;;29.33;;
7074;SDS011;3578;51.568;6.932;2023-05-10T09:20:18;50.47;;;30.80;;
7074;SDS011;3578;51.568;6.932;2023-05-10T09:22:45;42.27;;;29.47;;
7074;SDS011;3578;51.568;6.932;2023-05-10T09:25:12;40.03;;;27.33;;
7074;SDS011;3578;51.568;6.932;2023-05-10T09:27:44;42.37;;;27.27;;
7074;SDS011;3578;51.568;6.932;2023-05-10T09:30:15;37.17;;;25.90;;
7074;SDS011;3578;51.568;6.932;2023-05-10T09:32:44;35.23;;;25.10;;
7074;SDS011;3578;51.568;6.932;2023-05-10T09:35:14;29.90;;;22.37;;
7074;SDS011;3578;51.568;6.932;2023-05-10T09:37:42;27.53;;;19.90;;
7074;SDS011;3578;51.568;6.932;2023-05-10T09:40:13;27.90;;;19.17;;
7074;SDS011;3578;51.568;6.932;2023-05-10T09:42:51;25.73;;;19.13;;
7074;SDS011;3578;51.568;6.932;2023-05-10T09:45:20;27.60;;;19.00;;
7074;SDS011;3578;51.568;6.932;2023-05-10T09:47:47;28.40;;;20.20;;
7074;SDS011;3578;51.568;6.932;2023-05-10T09:50:14;28.83;;;20.30;;
7074;SDS011;3578;51.568;6.932;2023-05-10T09:52:48;27.57;;;19.43;;
7074;SDS011;3578;51.568;6.932;2023-05-10T09:55:17;25.50;;;19.93;;
7074;SDS011;3578;51.568;6.932;2023-05-10T09:57:48;32.67;;;19.53;;
7074;SDS011;3578;51.568;6.932;2023-05-10T10:00:16;33.90;;;21.70;;
7074;SDS011;3578;51.568;6.932;2023-05-10T10:02:46;27.10;;;19.40;;
7074;SDS011;3578;51.568;6.932;2023-05-10T10:05:14;26.03;;;19.93;;
7074;SDS011;3578;51.568;6.932;2023-05-10T10:07:41;29.27;;;20.07;;
7074;SDS011;3578;51.568;6.932;2023-05-10T10:10:09;34.40;;;21.83;;
7074;SDS011;3578;51.568;6.932;2023-05-10T10:12:39;28.20;;;20.23;;
7074;SDS011;3578;51.568;6.932;2023-05-10T10:15:09;29.73;;;18.97;;
7074;SDS011;3578;51.568;6.932;2023-05-10T10:17:37;26.07;;;18.60;;
7074;SDS011;3578;51.568;6.932;2023-05-10T10:20:05;24.90;;;17.97;;
7074;SDS011;3578;51.568;6.932;2023-05-10T10:22:34;25.27;;;17.60;;
7074;SDS011;3578;51.568;6.932;2023-05-10T10:25:02;26.00;;;18.70;;
7074;SDS011;3578;51.568;6.932;2023-05-10T10:27:34;29.03;;;18.73;;
7074;SDS011;3578;51.568;6.932;2023-05-10T10:30:16;23.50;;;19.33;;
7074;SDS011;3578;51.568;6.932;2023-05-10T10:33:08;29.83;;;20.10;;
7074;SDS011;3578;51.568;6.932;2023-05-10T10:35:54;30.13;;;20.63;;
7074;SDS011;3578;51.568;6.932;2023-05-10T10:38:24;30.17;;;19.87;;
7074;SDS011;3578;51.568;6.932;2023-05-10T10:41:01;26.03;;;18.73;;
7074;SDS011;3578;51.568;6.932;2023-05-10T10:43:29;25.93;;;19.20;;
7074;SDS011;3578;51.568;6.932;2023-05-10T10:46:09;22.40;;;17.30;;
7074;SDS011;3578;51.568;6.932;2023-05-10T10:48:39;26.20;;;18.57;;
7074;SDS011;3578;51.568;6.932;2023-05-10T10:51:06;31.70;;;18.57;;
7074;SDS011;3578;51.568;6.932;2023-05-10T10:53:33;27.57;;;19.63;;
7074;SDS011;3578;51.568;6.932;2023-05-10T10:56:07;25.00;;;17.73;;
7074;SDS011;3578;51.568;6.932;2023-05-10T10:58:36;21.77;;;16.60;;
7074;SDS011;3578;51.568;6.932;2023-05-10T11:01:12;23.60;;;16.33;;
7074;SDS011;3578;51.568;6.932;2023-05-10T11:03:41;19.53;;;15.50;;
7074;SDS011;3578;51.568;6.932;2023-05-10T11:06:46;29.67;;;15.30;;
7074;SDS011;3578;51.568;6.932;2023-05-10T11:09:13;20.93;;;15.93;;
7074;SDS011;3578;51.568;6.932;2023-05-10T11:11:50;18.63;;;15.27;;
7074;SDS011;3578;51.568;6.932;2023-05-10T11:14:20;20.97;;;16.63;;
7074;SDS011;3578;51.568;6.932;2023-05-10T11:16:48;23.23;;;17.40;;
7074;SDS011;3578;51.568;6.932;2023-05-10T11:19:15;20.30;;;15.73;;
7074;SDS011;3578;51.568;6.932;2023-05-10T11:21:45;21.27;;;16.77;;
7074;SDS011;3578;51.568;6.932;2023-05-10T11:24:14;18.80;;;16.27;;
7074;SDS011;3578;51.568;6.932;2023-05-10T11:26:43;24.10;;;18.03;;
7074;SDS011;3578;51.568;6.932;2023-05-10T11:29:11;24.40;;;17.17;;
7074;SDS011;3578;51.568;6.932;2023-05-10T11:31:42;22.63;;;17.23;;
7074;SDS011;3578;51.568;6.932;2023-05-10T11:34:11;22.40;;;18.40;;
7074;SDS011;3578;51.568;6.932;2023-05-10T11:36:52;21.93;;;17.80;;
7074;SDS011;3578;51.568;6.932;2023-05-10T11:39:20;20.80;;;17.20;;
7074;SDS011;3578;51.568;6.932;2023-05-10T11:41:51;23.23;;;16.63;;
7074;SDS011;3578;51.568;6.932;2023-05-10T11:44:18;23.77;;;17.20;;
7074;SDS011;3578;51.568;6.932;2023-05-10T11:46:45;21.10;;;18.37;;
7074;SDS011;3578;51.568;6.932;2023-05-10T11:49:12;24.73;;;18.30;;
7074;SDS011;3578;51.568;6.932;2023-05-10T11:51:39;26.97;;;19.83;;
7074;SDS011;3578;51.568;6.932;2023-05-10T11:54:10;29.50;;;21.97;;
7074;SDS011;3578;51.568;6.932;2023-05-10T11:56:37;22.40;;;18.30;;
7074;SDS011;3578;51.568;6.932;2023-05-10T11:59:05;23.30;;;19.47;;
7074;SDS011;3578;51.568;6.932;2023-05-10T12:01:33;26.87;;;19.80;;
7074;SDS011;3578;51.568;6.932;2023-05-10T12:04:00;25.50;;;19.93;;
7074;SDS011;3578;51.568;6.932;2023-05-10T12:06:28;25.50;;;20.63;;
7074;SDS011;3578;51.568;6.932;2023-05-10T12:08:57;26.23;;;20.73;;
7074;SDS011;3578;51.568;6.932;2023-05-10T12:11:27;27.80;;;20.30;;
7074;SDS011;3578;51.568;6.932;2023-05-10T12:13:54;24.63;;;17.70;;
7074;SDS011;3578;51.568;6.932;2023-05-10T12:16:22;20.90;;;16.90;;
7074;SDS011;3578;51.568;6.932;2023-05-10T12:18:51;26.67;;;17.47;;
7074;SDS011;3578;51.568;6.932;2023-05-10T12:21:20;22.70;;;16.70;;
7074;SDS011;3578;51.568;6.932;2023-05-10T12:23:48;17.90;;;15.87;;
7074;SDS011;3578;51.568;6.932;2023-05-10T12:26:17;20.23;;;14.97;;
7074;SDS011;3578;51.568;6.932;2023-05-10T12:28:48;16.77;;;13.97;;
7074;SDS011;3578;51.568;6.932;2023-05-10T12:31:16;16.93;;;15.03;;
7074;SDS011;3578;51.568;6.932;2023-05-10T12:33:43;19.60;;;14.90;;
7074;SDS011;3578;51.568;6.932;2023-05-10T12:36:12;14.50;;;12.60;;
7074;SDS011;3578;51.568;6.932;2023-05-10T12:38:41;25.53;;;12.53;;
7074;SDS011;3578;51.568;6.932;2023-05-10T12:41:09;15.17;;;11.77;;
7074;SDS011;3578;51.568;6.932;2023-05-10T12:43:38;15.43;;;11.50;;
7074;SDS011;3578;51.568;6.932;2023-05-10T12:46:08;15.47;;;11.80;;
7074;SDS011;3578;51.568;6.932;2023-05-10T12:48:36;12.43;;;11.10;;
7074;SDS011;3578;51.568;6.932;2023-05-10T12:51:04;12.80;;;10.70;;
7074;SDS011;3578;51.568;6.932;2023-05-10T12:53:34;9.83;;;8.30;;
7074;SDS011;3578;51.568;6.932;2023-05-10T12:56:01;8.53;;;7.73;;
7074;SDS011;3578;51.568;6.932;2023-05-10T12:58:28;9.50;;;7.23;;
7074;SDS011;3578;51.568;6.932;2023-05-10T13:00:57;11.00;;;6.57;;
7074;SDS011;3578;51.568;6.932;2023-05-10T13:03:25;7.90;;;7.10;;
7074;SDS011;3578;51.568;6.932;2023-05-10T13:05:52;8.20;;;6.63;;
7074;SDS011;3578;51.568;6.932;2023-05-10T13:08:19;9.00;;;7.60;;
7074;SDS011;3578;51.568;6.932;2023-05-10T13:10:46;7.00;;;6.30;;
7074;SDS011;3578;51.568;6.932;2023-05-10T13:13:13;6.73;;;6.10;;
7074;SDS011;3578;51.568;6.932;2023-05-10T13:15:41;7.43;;;6.00;;
7074;SDS011;3578;51.568;6.932;2023-05-10T13:18:08;6.47;;;5.87;;
7074;SDS011;3578;51.568;6.932;2023-05-10T13:20:36;7.93;;;5.70;;
7074;SDS011;3578;51.568;6.932;2023-05-10T13:23:04;7.23;;;6.50;;
7074;SDS011;3578;51.568;6.932;2023-05-10T13:25:31;12.37;;;7.00;;
7074;SDS011;3578;51.568;6.932;2023-05-10T13:27:59;8.00;;;7.20;;
7074;SDS011;3578;51.568;6.932;2023-05-10T13:30:26;8.73;;;7.27;;
7074;SDS011;3578;51.568;6.932;2023-05-10T13:32:53;8.77;;;7.80;;
7074;SDS011;3578;51.568;6.932;2023-05-10T13:35:20;7.10;;;6.27;;
7074;SDS011;3578;51.568;6.932;2023-05-10T13:37:49;8.13;;;7.23;;
7074;SDS011;3578;51.568;6.932;2023-05-10T13:40:18;7.60;;;6.80;;
7074;SDS011;3578;51.568;6.932;2023-05-10T13:42:45;7.60;;;6.27;;
7074;SDS011;3578;51.568;6.932;2023-05-10T13:45:12;6.80;;;6.10;;
7074;SDS011;3578;51.568;6.932;2023-05-10T13:47:39;8.50;;;6.67;;
7074;SDS011;3578;51.568;6.932;2023-05-10T13:50:06;9.23;;;7.07;;
7074;SDS011;3578;51.568;6.932;2023-05-10T13:52:34;6.40;;;5.40;;
7074;SDS011;3578;51.568;6.932;2023-05-10T13:55:02;10.23;;;6.57;;
7074;SDS011;3578;51.568;6.932;2023-05-10T13:57:30;9.83;;;6.63;;
7074;SDS011;3578;51.568;6.932;2023-05-10T13:59:59;7.67;;;6.70;;
7074;SDS011;3578;51.568;6.932;2023-05-10T14:02:26;7.00;;;6.30;;
7074;SDS011;3578;51.568;6.932;2023-05-10T14:04:53;7.83;;;6.70;;
7074;SDS011;3578;51.568;6.932;2023-05-10T14:07:20;8.90;;;7.40;;
7074;SDS011;3578;51.568;6.932;2023-05-10T14:09:47;6.83;;;6.10;;
7074;SDS011;3578;51.568;6.932;2023-05-10T14:12:16;7.50;;;6.33;;
7074;SDS011;3578;51.568;6.932;2023-05-10T14:14:43;8.13;;;6.97;;
7074;SDS011;3578;51.568;6.932;2023-05-10T14:17:10;7.73;;;6.93;;
7074;SDS011;3578;51.568;6.932;2023-05-10T14:19:37;9.03;;;7.13;;
7074;SDS011;3578;51.568;6.932;2023-05-10T14:22:04;7.27;;;6.60;;
7074;SDS011;3578;51.568;6.932;2023-05-10T14:24:31;8.40;;;7.60;;
7074;SDS011;3578;51.568;6.932;2023-05-10T14:26:58;9.30;;;7.70;;
7074;SDS011;3578;51.568;6.932;2023-05-10T14:29:27;9.27;;;7.10;;
7074;SDS011;3578;51.568;6.932;2023-05-10T14:31:54;13.47;;;7.07;;
7074;SDS011;3578;51.568;6.932;2023-05-10T14:34:21;8.40;;;7.03;;
7074;SDS011;3578;51.568;6.932;2023-05-10T14:36:47;8.80;;;5.73;;
7074;SDS011;3578;51.568;6.932;2023-05-10T14:39:14;6.80;;;6.20;;
7074;SDS011;3578;51.568;6.932;2023-05-10T14:41:41;7.43;;;6.10;;
7074;SDS011;3578;51.568;6.932;2023-05-10T14:44:09;7.33;;;6.47;;
7074;SDS011;3578;51.568;6.932;2023-05-10T14:46:37;9.00;;;6.80;;
7074;SDS011;3578;51.568;6.932;2023-05-10T14:49:05;7.67;;;6.77;;
7074;SDS011;3578;51.568;6.932;2023-05-10T14:51:32;7.70;;;6.93;;
7074;SDS011;3578;51.568;6.932;2023-05-10T14:54:01;10.70;;;7.17;;
7074;SDS011;3578;51.568;6.932;2023-05-10T14:56:28;8.03;;;7.23;;
7074;SDS011;3578;51.568;6.932;2023-05-10T14:58:55;7.03;;;6.33;;
7074;SDS011;3578;51.568;6.932;2023-05-10T15:01:22;9.03;;;7.30;;
7074;SDS011;3578;51.568;6.932;2023-05-10T15:03:51;7.93;;;7.00;;